sensor_id;sensor_type;location;lat;lon;timestamp;pressure;altitude;pressure_sealevel;temperature;humidity
54262;BME280;40174;52.364;6.452;2024-03-08T00:01:46;101753.38;;;1.90;100.00
54262;BME280;40174;52.364;6.452;2024-03-08T00:04:13;101759.41;;;1.92;100.00
54262;BME280;40174;52.364;6.452;2024-03-08T00:06:40;101746.72;;;1.79;100.00
54262;BME280;40174;52.364;6.452;2024-03-08T00:09:09;101745.94;;;1.77;100.00
54262;BME280;40174;52.364;6.452;2024-03-08T00:11:36;101754.78;;;1.72;100.00
54262;BME280;40174;52.364;6.452;2024-03-08T00:14:02;101740.88;;;1.73;100.00
54262;BME280;40174;52.364;6.452;2024-03-08T00:16:32;101744.31;;;1.73;100.00
54262;BME280;40174;52.364;6.452;2024-03-08T00:19:00;101739.16;;;1.70;100.00
54262;BME280;40174;52.364;6.452;2024-03-08T00:21:26;101748.69;;;1.73;100.00
54262;BME280;40174;52.364;6.452;2024-03-08T00:23:53;101737.47;;;1.69;100.00
54262;BME280;40174;52.364;6.452;2024-03-08T00:26:20;101726.13;;;1.70;100.00
54262;BME280;40174;52.364;6.452;2024-03-08T00:28:47;101739.09;;;1.73;100.00
54262;BME280;40174;52.364;6.452;2024-03-08T00:31:14;101723.53;;;1.70;100.00
54262;BME280;40174;52.364;6.452;2024-03-08T00:33:41;101727.91;;;1.70;100.00
54262;BME280;40174;52.364;6.452;2024-03-08T00:36:09;101729.66;;;1.69;100.00
54262;BME280;40174;52.364;6.452;2024-03-08T00:38:35;101726.25;;;1.67;100.00
54262;BME280;40174;52.364;6.452;2024-03-08T00:41:02;101730.47;;;1.71;100.00
54262;BME280;40174;52.364;6.452;2024-03-08T00:43:29;101731.34;;;1.70;100.00
54262;BME280;40174;52.364;6.452;2024-03-08T00:45:55;101731.41;;;1.69;100.00
54262;BME280;40174;52.364;6.452;2024-03-08T00:48:23;101729.69;;;1.67;100.00
54262;BME280;40174;52.364;6.452;2024-03-08T00:50:50;101722.72;;;1.68;100.00
54262;BME280;40174;52.364;6.452;2024-03-08T00:53:18;101715.03;;;1.63;100.00
54262;BME280;40174;52.364;6.452;2024-03-08T00:55:44;101715.97;;;1.61;100.00
54262;BME280;40174;52.364;6.452;2024-03-08T00:58:11;101711.63;;;1.61;100.00
54262;BME280;40174;52.364;6.452;2024-03-08T01:00:38;101709.97;;;1.59;100.00
54262;BME280;40174;52.364;6.452;2024-03-08T01:03:05;101695.38;;;1.53;100.00
54262;BME280;40174;52.364;6.452;2024-03-08T01:05:32;101704.94;;;1.53;100.00
54262;BME280;40174;52.364;6.452;2024-03-08T01:07:59;101700.75;;;1.47;100.00
54262;BME280;40174;52.364;6.452;2024-03-08T01:10:27;101698.78;;;1.55;100.00
54262;BME280;40174;52.364;6.452;2024-03-08T01:12:53;101692.16;;;1.43;100.00
54262;BME280;40174;52.364;6.452;2024-03-08T01:15:22;101692.16;;;1.43;100.00
54262;BME280;40174;52.364;6.452;2024-03-08T01:17:48;101691.38;;;1.41;100.00
54262;BME280;40174;52.364;6.452;2024-03-08T01:20:15;101677.59;;;1.36;100.00
54262;BME280;40174;52.364;6.452;2024-03-08T01:22:43;101686.19;;;1.40;100.00
54262;BME280;40174;52.364;6.452;2024-03-08T01:25:09;101680.03;;;1.42;100.00
54262;BME280;40174;52.364;6.452;2024-03-08T01:27:37;101670.44;;;1.44;100.00
54262;BME280;40174;52.364;6.452;2024-03-08T01:30:05;101669.72;;;1.39;100.00
54262;BME280;40174;52.364;6.452;2024-03-08T01:32:32;101665.50;;;1.35;100.00
54262;BME280;40174;52.364;6.452;2024-03-08T01:34:59;101665.47;;;1.37;100.00
54262;BME280;40174;52.364;6.452;2024-03-08T01:37:25;101656.69;;;1.39;100.00
54262;BME280;40174;52.364;6.452;2024-03-08T01:39:52;101656.75;;;1.36;100.00
54262;BME280;40174;52.364;6.452;2024-03-08T01:42:18;101654.13;;;1.38;100.00
54262;BME280;40174;52.364;6.452;2024-03-08T01:44:46;101640.31;;;1.34;100.00
54262;BME280;40174;52.364;6.452;2024-03-08T01:47:13;101648.34;;;1.28;100.00
54262;BME280;40174;52.364;6.452;2024-03-08T01:49:40;101639.47;;;1.34;100.00
54262;BME280;40174;52.364;6.452;2024-03-08T01:52:07;101635.91;;;1.36;100.00
54262;BME280;40174;52.364;6.452;2024-03-08T01:54:34;101636.91;;;1.32;100.00
54262;BME280;40174;52.364;6.452;2024-03-08T01:57:01;101631.78;;;1.29;100.00
54262;BME280;40174;52.364;6.452;2024-03-08T01:59:28;101637.03;;;1.28;100.00
54262;BME280;40174;52.364;6.452;2024-03-08T02:02:00;101629.41;;;1.21;100.00
54262;BME280;40174;52.364;6.452;2024-03-08T02:04:27;101632.06;;;1.20;100.00
54262;BME280;40174;52.364;6.452;2024-03-08T02:06:53;101630.38;;;1.19;100.00
54262;BME280;40174;52.364;6.452;2024-03-08T02:09:20;101626.03;;;1.18;100.00
54262;BME280;40174;52.364;6.452;2024-03-08T02:11:47;101625.31;;;1.13;100.00
54262;BME280;40174;52.364;6.452;2024-03-08T02:14:13;101620.16;;;1.11;100.00
54262;BME280;40174;52.364;6.452;2024-03-08T02:16:40;101618.53;;;1.07;100.00
54262;BME280;40174;52.364;6.452;2024-03-08T02:19:08;101615.31;;;0.99;100.00
54262;BME280;40174;52.364;6.452;2024-03-08T02:21:36;101609.16;;;1.01;100.00
54262;BME280;40174;52.364;6.452;2024-03-08T02:24:04;101610.81;;;1.04;100.00
54262;BME280;40174;52.364;6.452;2024-03-08T02:26:31;101613.28;;;1.09;100.00
54262;BME280;40174;52.364;6.452;2024-03-08T02:28:57;101606.44;;;1.04;100.00
54262;BME280;40174;52.364;6.452;2024-03-08T02:31:24;101599.59;;;1.02;100.00
54262;BME280;40174;52.364;6.452;2024-03-08T02:33:51;101608.09;;;1.07;100.00
54262;BME280;40174;52.364;6.452;2024-03-08T02:36:17;101607.28;;;1.05;100.00
54262;BME280;40174;52.364;6.452;2024-03-08T02:38:45;101601.28;;;1.03;100.00
54262;BME280;40174;52.364;6.452;2024-03-08T02:41:12;101592.59;;;1.04;100.00
54262;BME280;40174;52.364;6.452;2024-03-08T02:43:38;101603.03;;;1.02;100.00
54262;BME280;40174;52.364;6.452;2024-03-08T02:46:05;101590.97;;;1.00;100.00
54262;BME280;40174;52.364;6.452;2024-03-08T02:48:31;101586.81;;;0.93;100.00
54262;BME280;40174;52.364;6.452;2024-03-08T02:50:58;101589.44;;;0.93;100.00
54262;BME280;40174;52.364;6.452;2024-03-08T02:53:25;101586.78;;;0.94;100.00
54262;BME280;40174;52.364;6.452;2024-03-08T02:55:53;101591.19;;;0.92;100.00
54262;BME280;40174;52.364;6.452;2024-03-08T02:58:20;101579.91;;;0.92;100.00
54262;BME280;40174;52.364;6.452;2024-03-08T03:00:47;101580.78;;;0.92;100.00
54262;BME280;40174;52.364;6.452;2024-03-08T03:03:13;101578.16;;;0.92;100.00
54262;BME280;40174;52.364;6.452;2024-03-08T03:05:40;101578.09;;;0.94;100.00
54262;BME280;40174;52.364;6.452;2024-03-08T03:08:07;101574.75;;;0.90;100.00
54262;BME280;40174;52.364;6.452;2024-03-08T03:10:35;101568.78;;;0.87;100.00
54262;BME280;40174;52.364;6.452;2024-03-08T03:13:03;101558.25;;;0.90;100.00
54262;BME280;40174;52.364;6.452;2024-03-08T03:15:30;101561.91;;;0.84;100.00
54262;BME280;40174;52.364;6.452;2024-03-08T03:17:59;101555.22;;;0.75;100.00
54262;BME280;40174;52.364;6.452;2024-03-08T03:20:25;101560.38;;;0.77;100.00
54262;BME280;40174;52.364;6.452;2024-03-08T03:22:57;101559.59;;;0.73;100.00
54262;BME280;40174;52.364;6.452;2024-03-08T03:25:27;101555.22;;;0.75;100.00
54262;BME280;40174;52.364;6.452;2024-03-08T03:27:59;101553.53;;;0.73;100.00
54262;BME280;40174;52.364;6.452;2024-03-08T03:30:27;101550.03;;;0.74;100.00
54262;BME280;40174;52.364;6.452;2024-03-08T03:32:58;101556.94;;;0.76;100.00
54262;BME280;40174;52.364;6.452;2024-03-08T03:35:26;101552.59;;;0.75;100.00
54262;BME280;40174;52.364;6.452;2024-03-08T03:37:53;101548.25;;;0.76;100.00
54262;BME280;40174;52.364;6.452;2024-03-08T03:40:28;101549.91;;;0.78;100.00
54262;BME280;40174;52.364;6.452;2024-03-08T03:42:55;101560.31;;;0.78;100.00
54262;BME280;40174;52.364;6.452;2024-03-08T03:45:21;101552.63;;;0.74;100.00
54262;BME280;40174;52.364;6.452;2024-03-08T03:47:49;101557.09;;;0.70;100.00
54262;BME280;40174;52.364;6.452;2024-03-08T03:50:17;101550.97;;;0.71;100.00
54262;BME280;40174;52.364;6.452;2024-03-08T03:52:44;101551.81;;;0.72;100.00
54262;BME280;40174;52.364;6.452;2024-03-08T03:55:11;101550.94;;;0.73;100.00
54262;BME280;40174;52.364;6.452;2024-03-08T03:57:38;101548.47;;;0.68;100.00
54262;BME280;40174;52.364;6.452;2024-03-08T04:00:06;101540.63;;;0.70;100.00
54262;BME280;40174;52.364;6.452;2024-03-08T04:02:38;101536.28;;;0.70;100.00
54262;BME280;40174;52.364;6.452;2024-03-08T04:05:08;101538.03;;;0.70;100.00
54262;BME280;40174;52.364;6.452;2024-03-08T04:07:36;101533.72;;;0.69;100.00
54262;BME280;40174;52.364;6.452;2024-03-08T04:10:03;101530.25;;;0.68;100.00
54262;BME280;40174;52.364;6.452;2024-03-08T04:12:31;101523.25;;;0.70;100.00
54262;BME280;40174;52.364;6.452;2024-03-08T04:14:58;101531.13;;;0.67;100.00
54262;BME280;40174;52.364;6.452;2024-03-08T04:17:24;101527.78;;;0.64;100.00
54262;BME280;40174;52.364;6.452;2024-03-08T04:19:51;101513.94;;;0.63;100.00
54262;BME280;40174;52.364;6.452;2024-03-08T04:22:19;101518.25;;;0.62;100.00
54262;BME280;40174;52.364;6.452;2024-03-08T04:24:46;101521.78;;;0.61;100.00
54262;BME280;40174;52.364;6.452;2024-03-08T04:27:13;101521.78;;;0.61;100.00
54262;BME280;40174;52.364;6.452;2024-03-08T04:29:39;101510.59;;;0.58;100.00
54262;BME280;40174;52.364;6.452;2024-03-08T04:32:07;101520.09;;;0.59;100.00
54262;BME280;40174;52.364;6.452;2024-03-08T04:34:34;101519.31;;;0.55;100.00
54262;BME280;40174;52.364;6.452;2024-03-08T04:37:00;101513.28;;;0.55;100.00
54262;BME280;40174;52.364;6.452;2024-03-08T04:39:28;101520.09;;;0.59;100.00
54262;BME280;40174;52.364;6.452;2024-03-08T04:41:57;101520.16;;;0.56;100.00
54262;BME280;40174;52.364;6.452;2024-03-08T04:44:25;101515.19;;;0.48;100.00
54262;BME280;40174;52.364;6.452;2024-03-08T04:46:51;101510.16;;;0.42;100.00
54262;BME280;40174;52.364;6.452;2024-03-08T04:49:18;101510.22;;;0.40;100.00
54262;BME280;40174;52.364;6.452;2024-03-08T04:51:47;101516.13;;;0.46;100.00
54262;BME280;40174;52.364;6.452;2024-03-08T04:54:13;101511.75;;;0.48;100.00
54262;BME280;40174;52.364;6.452;2024-03-08T04:56:41;101509.16;;;0.48;100.00
54262;BME280;40174;52.364;6.452;2024-03-08T04:59:08;101512.72;;;0.44;100.00
54262;BME280;40174;52.364;6.452;2024-03-08T05:01:34;101507.66;;;0.39;100.00
54262;BME280;40174;52.364;6.452;2024-03-08T05:04:03;101510.28;;;0.37;100.00
54262;BME280;40174;52.364;6.452;2024-03-08T05:06:30;101505.00;;;0.40;100.00
54262;BME280;40174;52.364;6.452;2024-03-08T05:08:58;101497.38;;;0.34;100.00
54262;BME280;40174;52.364;6.452;2024-03-08T05:11:25;101501.84;;;0.29;100.00
54262;BME280;40174;52.364;6.452;2024-03-08T05:13:53;101497.50;;;0.30;100.00
54262;BME280;40174;52.364;6.452;2024-03-08T05:16:20;101492.28;;;0.30;100.00
54262;BME280;40174;52.364;6.452;2024-03-08T05:18:47;101496.72;;;0.26;100.00
54262;BME280;40174;52.364;6.452;2024-03-08T05:21:14;101492.44;;;0.24;100.00
54262;BME280;40174;52.364;6.452;2024-03-08T05:23:45;101497.66;;;0.24;100.00
54262;BME280;40174;52.364;6.452;2024-03-08T05:26:12;101492.44;;;0.24;100.00
54262;BME280;40174;52.364;6.452;2024-03-08T05:28:39;101500.22;;;0.25;100.00
54262;BME280;40174;52.364;6.452;2024-03-08T05:31:07;101490.75;;;0.23;100.00
54262;BME280;40174;52.364;6.452;2024-03-08T05:33:33;101493.28;;;0.24;100.00
54262;BME280;40174;52.364;6.452;2024-03-08T05:36:00;101492.53;;;0.20;100.00
54262;BME280;40174;52.364;6.452;2024-03-08T05:38:27;101490.78;;;0.21;100.00
54262;BME280;40174;52.364;6.452;2024-03-08T05:40:53;101485.63;;;0.19;100.00
54262;BME280;40174;52.364;6.452;2024-03-08T05:43:20;101489.13;;;0.18;100.00
54262;BME280;40174;52.364;6.452;2024-03-08T05:45:47;101490.91;;;0.16;100.00
54262;BME280;40174;52.364;6.452;2024-03-08T05:48:15;101490.06;;;0.16;100.00
54262;BME280;40174;52.364;6.452;2024-03-08T05:50:44;101487.41;;;0.17;100.00
54262;BME280;40174;52.364;6.452;2024-03-08T05:53:10;101480.63;;;0.12;100.00
54262;BME280;40174;52.364;6.452;2024-03-08T05:55:37;101484.94;;;0.13;100.00
54262;BME280;40174;52.364;6.452;2024-03-08T05:58:04;101490.22;;;0.10;100.00
54262;BME280;40174;52.364;6.452;2024-03-08T06:00:33;101475.56;;;0.07;100.00
54262;BME280;40174;52.364;6.452;2024-03-08T06:03:01;101479.13;;;0.03;100.00
54262;BME280;40174;52.364;6.452;2024-03-08T06:05:29;101477.38;;;0.04;100.00
54262;BME280;40174;52.364;6.452;2024-03-08T06:07:56;101480.66;;;0.10;100.00
54262;BME280;40174;52.364;6.452;2024-03-08T06:10:23;101483.47;;;0.03;100.00
54262;BME280;40174;52.364;6.452;2024-03-08T06:12:49;101476.56;;;0.02;100.00
54262;BME280;40174;52.364;6.452;2024-03-08T06:15:16;101470.50;;;0.01;100.00
54262;BME280;40174;52.364;6.452;2024-03-08T06:17:45;101473.00;;;0.06;100.00
54262;BME280;40174;52.364;6.452;2024-03-08T06:20:12;101466.09;;;0.05;100.00
54262;BME280;40174;52.364;6.452;2024-03-08T06:22:40;101467.88;;;0.03;100.00
54262;BME280;40174;52.364;6.452;2024-03-08T06:25:07;101468.69;;;0.05;100.00
54262;BME280;40174;52.364;6.452;2024-03-08T06:27:35;101463.53;;;0.03;100.00
54262;BME280;40174;52.364;6.452;2024-03-08T06:30:02;101473.09;;;0.03;100.00
54262;BME280;40174;52.364;6.452;2024-03-08T06:32:30;101463.66;;;-0.02;100.00
54262;BME280;40174;52.364;6.452;2024-03-08T06:34:58;101463.44;;;0.06;100.00
54262;BME280;40174;52.364;6.452;2024-03-08T06:37:27;101471.22;;;0.08;100.00
54262;BME280;40174;52.364;6.452;2024-03-08T06:39:55;101469.59;;;0.02;100.00
54262;BME280;40174;52.364;6.452;2024-03-08T06:42:22;101464.47;;;0.01;100.00
54262;BME280;40174;52.364;6.452;2024-03-08T06:44:49;101461.88;;;0.01;100.00
54262;BME280;40174;52.364;6.452;2024-03-08T06:47:15;101465.34;;;-0.01;100.00
54262;BME280;40174;52.364;6.452;2024-03-08T06:49:42;101467.91;;;0.01;100.00
54262;BME280;40174;52.364;6.452;2024-03-08T06:52:09;101459.19;;;0.04;100.00
54262;BME280;40174;52.364;6.452;2024-03-08T06:54:36;101470.41;;;0.04;100.00
54262;BME280;40174;52.364;6.452;2024-03-08T06:57:04;101460.09;;;0.03;100.00
54262;BME280;40174;52.364;6.452;2024-03-08T06:59:31;101465.22;;;0.04;100.00
54262;BME280;40174;52.364;6.452;2024-03-08T07:01:58;101459.06;;;0.08;100.00
54262;BME280;40174;52.364;6.452;2024-03-08T07:04:25;101452.97;;;0.09;100.00
54262;BME280;40174;52.364;6.452;2024-03-08T07:06:55;101452.91;;;0.11;100.00
54262;BME280;40174;52.364;6.452;2024-03-08T07:09:23;101456.31;;;0.14;100.00
54262;BME280;40174;52.364;6.452;2024-03-08T07:11:49;101450.28;;;0.12;100.00
54262;BME280;40174;52.364;6.452;2024-03-08T07:14:21;101439.84;;;0.14;100.00
54262;BME280;40174;52.364;6.452;2024-03-08T07:16:49;101446.63;;;0.19;100.00
54262;BME280;40174;52.364;6.452;2024-03-08T07:19:15;101446.63;;;0.19;100.00
54262;BME280;40174;52.364;6.452;2024-03-08T07:21:42;101444.00;;;0.21;100.00
54262;BME280;40174;52.364;6.452;2024-03-08T07:24:09;101442.09;;;0.26;100.00
54262;BME280;40174;52.364;6.452;2024-03-08T07:26:53;101436.03;;;0.27;100.00
54262;BME280;40174;52.364;6.452;2024-03-08T07:29:22;101446.09;;;0.38;100.00
54262;BME280;40174;52.364;6.452;2024-03-08T07:31:49;101441.69;;;0.41;100.00
54262;BME280;40174;52.364;6.452;2024-03-08T07:34:26;101438.22;;;0.41;100.00
54262;BME280;40174;52.364;6.452;2024-03-08T07:36:53;101442.41;;;0.47;100.00
54262;BME280;40174;52.364;6.452;2024-03-08T07:39:21;101437.13;;;0.50;100.00
54262;BME280;40174;52.364;6.452;2024-03-08T07:41:49;101437.03;;;0.53;100.00
54262;BME280;40174;52.364;6.452;2024-03-08T07:44:17;101435.13;;;0.58;100.00
54262;BME280;40174;52.364;6.452;2024-03-08T07:46:45;101441.06;;;0.63;100.00
54262;BME280;40174;52.364;6.452;2024-03-08T07:49:12;101438.38;;;0.66;100.00
54262;BME280;40174;52.364;6.452;2024-03-08T07:51:40;101434.72;;;0.72;100.00
54262;BME280;40174;52.364;6.452;2024-03-08T07:54:06;101427.72;;;0.74;100.00
54262;BME280;40174;52.364;6.452;2024-03-08T07:56:34;101431.78;;;0.84;100.00
54262;BME280;40174;52.364;6.452;2024-03-08T07:59:01;101417.91;;;0.83;100.00
54262;BME280;40174;52.364;6.452;2024-03-08T08:01:29;101418.50;;;0.92;100.00
54262;BME280;40174;52.364;6.452;2024-03-08T08:03:57;101422.69;;;0.97;100.00
54262;BME280;40174;52.364;6.452;2024-03-08T08:06:23;101412.94;;;1.04;100.00
54262;BME280;40174;52.364;6.452;2024-03-08T08:08:50;101424.00;;;1.11;100.00
54262;BME280;40174;52.364;6.452;2024-03-08T08:11:17;101415.16;;;1.16;100.00
54262;BME280;40174;52.364;6.452;2024-03-08T08:13:44;101412.41;;;1.21;100.00
54262;BME280;40174;52.364;6.452;2024-03-08T08:16:10;101418.09;;;1.32;100.00
54262;BME280;40174;52.364;6.452;2024-03-08T08:18:38;101405.81;;;1.37;100.00
54262;BME280;40174;52.364;6.452;2024-03-08T08:21:06;101404.66;;;1.46;100.00
54262;BME280;40174;52.364;6.452;2024-03-08T08:23:33;101410.50;;;1.53;100.00
54262;BME280;40174;52.364;6.452;2024-03-08T08:25:59;101403.38;;;1.58;100.00
54262;BME280;40174;52.364;6.452;2024-03-08T08:28:28;101392.75;;;1.64;100.00
54262;BME280;40174;52.364;6.452;2024-03-08T08:30:56;101402.13;;;1.70;100.00
54262;BME280;40174;52.364;6.452;2024-03-08T08:33:22;101391.31;;;1.80;100.00
54262;BME280;40174;52.364;6.452;2024-03-08T08:35:50;101388.44;;;1.88;100.00
54262;BME280;40174;52.364;6.452;2024-03-08T08:38:20;101392.66;;;1.92;100.00
54262;BME280;40174;52.364;6.452;2024-03-08T08:40:47;101381.16;;;1.98;100.00
54262;BME280;40174;52.364;6.452;2024-03-08T08:43:14;101374.84;;;2.03;100.00
54262;BME280;40174;52.364;6.452;2024-03-08T08:45:40;101378.09;;;2.10;100.00
54262;BME280;40174;52.364;6.452;2024-03-08T08:48:08;101373.50;;;2.17;100.00
54262;BME280;40174;52.364;6.452;2024-03-08T08:50:35;101374.09;;;2.25;100.00
54262;BME280;40174;52.364;6.452;2024-03-08T08:53:03;101376.34;;;2.34;100.00
54262;BME280;40174;52.364;6.452;2024-03-08T08:55:33;101364.72;;;2.43;100.00
54262;BME280;40174;52.364;6.452;2024-03-08T08:58:01;101365.53;;;2.45;100.00
54262;BME280;40174;52.364;6.452;2024-03-08T09:00:28;101360.78;;;2.55;100.00
54262;BME280;40174;52.364;6.452;2024-03-08T09:02:56;101362.38;;;2.59;100.00
54262;BME280;40174;52.364;6.452;2024-03-08T09:05:23;101355.13;;;2.67;100.00
54262;BME280;40174;52.364;6.452;2024-03-08T09:07:50;101358.25;;;2.75;100.00
54262;BME280;40174;52.364;6.452;2024-03-08T09:10:17;101355.47;;;2.80;100.00
54262;BME280;40174;52.364;6.452;2024-03-08T09:12:45;101363.06;;;2.86;100.00
54262;BME280;40174;52.364;6.452;2024-03-08T09:15:12;101346.13;;;2.96;100.00
54262;BME280;40174;52.364;6.452;2024-03-08T09:17:39;101350.06;;;3.06;100.00
54262;BME280;40174;52.364;6.452;2024-03-08T09:20:07;101351.44;;;3.15;100.00
54262;BME280;40174;52.364;6.452;2024-03-08T09:22:34;101349.47;;;3.20;100.00
54262;BME280;40174;52.364;6.452;2024-03-08T09:25:01;101342.19;;;3.28;100.00
54262;BME280;40174;52.364;6.452;2024-03-08T09:27:28;101337.50;;;3.37;100.00
54262;BME280;40174;52.364;6.452;2024-03-08T09:29:56;101343.03;;;3.49;100.00
54262;BME280;40174;52.364;6.452;2024-03-08T09:32:23;101331.34;;;3.58;100.00
54262;BME280;40174;52.364;6.452;2024-03-08T09:34:49;101330.25;;;3.64;100.00
54262;BME280;40174;52.364;6.452;2024-03-08T09:37:16;101328.91;;;3.74;100.00
54262;BME280;40174;52.364;6.452;2024-03-08T09:39:44;101325.78;;;3.86;100.00
54262;BME280;40174;52.364;6.452;2024-03-08T09:42:11;101314.19;;;3.92;100.00
54262;BME280;40174;52.364;6.452;2024-03-08T09:44:44;101319.72;;;4.05;100.00
54262;BME280;40174;52.364;6.452;2024-03-08T09:47:13;101308.31;;;4.06;100.00
54262;BME280;40174;52.364;6.452;2024-03-08T09:49:40;101307.97;;;4.13;100.00
54262;BME280;40174;52.364;6.452;2024-03-08T09:52:07;101311.00;;;4.23;100.00
54262;BME280;40174;52.364;6.452;2024-03-08T09:54:35;101293.91;;;4.35;100.00
54262;BME280;40174;52.364;6.452;2024-03-08T09:57:03;101295.94;;;4.47;100.00
54262;BME280;40174;52.364;6.452;2024-03-08T09:59:30;101297.91;;;4.61;100.00
54262;BME280;40174;52.364;6.452;2024-03-08T10:02:15;101288.47;;;4.76;100.00
54262;BME280;40174;52.364;6.452;2024-03-08T10:04:43;101293.97;;;4.89;100.00
54262;BME280;40174;52.364;6.452;2024-03-08T10:07:11;101285.66;;;4.98;100.00
54262;BME280;40174;52.364;6.452;2024-03-08T10:09:38;101285.03;;;5.10;100.00
54262;BME280;40174;52.364;6.452;2024-03-08T10:12:05;101283.66;;;5.20;100.00
54262;BME280;40174;52.364;6.452;2024-03-08T10:14:39;101271.69;;;5.32;100.00
54262;BME280;40174;52.364;6.452;2024-03-08T10:17:06;101276.16;;;5.48;100.00
54262;BME280;40174;52.364;6.452;2024-03-08T10:19:34;101266.19;;;5.54;100.00
54262;BME280;40174;52.364;6.452;2024-03-08T10:22:00;101262.06;;;5.66;100.00
54262;BME280;40174;52.364;6.452;2024-03-08T10:24:31;101253.53;;;5.78;100.00
54262;BME280;40174;52.364;6.452;2024-03-08T10:26:59;101253.97;;;5.87;100.00
54262;BME280;40174;52.364;6.452;2024-03-08T10:29:26;101262.59;;;6.06;100.00
54262;BME280;40174;52.364;6.452;2024-03-08T10:31:54;101254.66;;;6.23;100.00
54262;BME280;40174;52.364;6.452;2024-03-08T10:34:22;101245.81;;;6.40;100.00
54262;BME280;40174;52.364;6.452;2024-03-08T10:36:51;101249.63;;;6.51;100.00
54262;BME280;40174;52.364;6.452;2024-03-08T10:39:22;101248.00;;;6.64;100.00
54262;BME280;40174;52.364;6.452;2024-03-08T10:41:56;101247.97;;;6.80;100.00
54262;BME280;40174;52.364;6.452;2024-03-08T10:44:52;101248.06;;;6.93;100.00
54262;BME280;40174;52.364;6.452;2024-03-08T10:47:26;101243.72;;;7.07;100.00
54262;BME280;40174;52.364;6.452;2024-03-08T10:49:59;101238.66;;;7.19;100.00
54262;BME280;40174;52.364;6.452;2024-03-08T10:52:31;101234.91;;;7.37;100.00
54262;BME280;40174;52.364;6.452;2024-03-08T10:55:01;101235.72;;;7.54;100.00
54262;BME280;40174;52.364;6.452;2024-03-08T10:57:28;101237.00;;;7.75;100.00
54262;BME280;40174;52.364;6.452;2024-03-08T10:59:57;101227.41;;;7.88;100.00
54262;BME280;40174;52.364;6.452;2024-03-08T11:02:25;101228.22;;;8.03;100.00
54262;BME280;40174;52.364;6.452;2024-03-08T11:04:54;101225.47;;;8.19;100.00
54262;BME280;40174;52.364;6.452;2024-03-08T11:07:22;101217.50;;;8.33;100.00
54262;BME280;40174;52.364;6.452;2024-03-08T11:09:52;101219.22;;;8.35;100.00
54262;BME280;40174;52.364;6.452;2024-03-08T11:12:20;101219.19;;;8.49;100.00
54262;BME280;40174;52.364;6.452;2024-03-08T11:14:46;101209.53;;;8.62;100.00
54262;BME280;40174;52.364;6.452;2024-03-08T11:17:15;101210.41;;;8.76;100.00
54262;BME280;40174;52.364;6.452;2024-03-08T11:19:46;101206.00;;;8.89;100.00
54262;BME280;40174;52.364;6.452;2024-03-08T11:22:20;101201.50;;;9.04;100.00
54262;BME280;40174;52.364;6.452;2024-03-08T11:24:49;101202.66;;;9.12;100.00
54262;BME280;40174;52.364;6.452;2024-03-08T11:27:17;101196.03;;;9.20;100.00
54262;BME280;40174;52.364;6.452;2024-03-08T11:29:59;101191.06;;;9.28;100.00
54262;BME280;40174;52.364;6.452;2024-03-08T11:32:27;101187.78;;;9.37;100.00
54262;BME280;40174;52.364;6.452;2024-03-08T11:34:54;101180.19;;;9.45;100.00
54262;BME280;40174;52.364;6.452;2024-03-08T11:37:21;101178.78;;;9.52;100.00
54262;BME280;40174;52.364;6.452;2024-03-08T11:39:48;101171.28;;;9.59;100.00
54262;BME280;40174;52.364;6.452;2024-03-08T11:42:17;101176.78;;;9.69;100.00
54262;BME280;40174;52.364;6.452;2024-03-08T11:44:44;101165.72;;;9.88;100.00
54262;BME280;40174;52.364;6.452;2024-03-08T11:47:11;101160.34;;;9.89;100.00
54262;BME280;40174;52.364;6.452;2024-03-08T11:49:38;101163.50;;;9.94;100.00
54262;BME280;40174;52.364;6.452;2024-03-08T11:52:10;101158.28;;;10.06;100.00
54262;BME280;40174;52.364;6.452;2024-03-08T11:54:38;101151.25;;;10.17;100.00
54262;BME280;40174;52.364;6.452;2024-03-08T11:57:05;101144.19;;;10.18;100.00
54262;BME280;40174;52.364;6.452;2024-03-08T11:59:34;101143.06;;;10.33;100.00
54262;BME280;40174;52.364;6.452;2024-03-08T12:02:02;101139.28;;;10.49;100.00
54262;BME280;40174;52.364;6.452;2024-03-08T12:04:29;101139.44;;;10.58;100.00
54262;BME280;40174;52.364;6.452;2024-03-08T12:06:59;101135.97;;;10.69;100.00
54262;BME280;40174;52.364;6.452;2024-03-08T12:09:27;101129.75;;;10.81;100.00
54262;BME280;40174;52.364;6.452;2024-03-08T12:11:54;101122.06;;;10.78;100.00
54262;BME280;40174;52.364;6.452;2024-03-08T12:14:20;101114.84;;;10.80;100.00
54262;BME280;40174;52.364;6.452;2024-03-08T12:16:50;101115.47;;;10.95;100.00
54262;BME280;40174;52.364;6.452;2024-03-08T12:19:17;101107.78;;;11.03;100.00
54262;BME280;40174;52.364;6.452;2024-03-08T12:21:44;101106.94;;;11.03;100.00
54262;BME280;40174;52.364;6.452;2024-03-08T12:24:15;101103.97;;;11.08;100.00
54262;BME280;40174;52.364;6.452;2024-03-08T12:26:45;101092.16;;;11.23;100.00
54262;BME280;40174;52.364;6.452;2024-03-08T12:29:20;101092.75;;;11.27;100.00
54262;BME280;40174;52.364;6.452;2024-03-08T12:31:51;101086.38;;;11.29;100.00
54262;BME280;40174;52.364;6.452;2024-03-08T12:34:18;101082.66;;;11.20;98.55
54262;BME280;40174;52.364;6.452;2024-03-08T12:36:46;101079.06;;;11.21;100.00
54262;BME280;40174;52.364;6.452;2024-03-08T12:39:17;101073.84;;;11.42;100.00
54262;BME280;40174;52.364;6.452;2024-03-08T12:41:47;101071.44;;;11.51;99.54
54262;BME280;40174;52.364;6.452;2024-03-08T12:44:17;101069.16;;;11.57;99.57
54262;BME280;40174;52.364;6.452;2024-03-08T12:46:44;101064.06;;;11.54;100.00
54262;BME280;40174;52.364;6.452;2024-03-08T12:49:12;101064.94;;;11.55;100.00
54262;BME280;40174;52.364;6.452;2024-03-08T12:51:42;101063.59;;;11.60;99.93
54262;BME280;40174;52.364;6.452;2024-03-08T12:54:09;101060.19;;;11.70;100.00